Granite Canon, Wyoming
Current Conditions -  °F | °C
As of 3:56 PM on Tuesday 25 Nov 2014 (Local Time) from KFEW Reporting Station
Clear Clear  
Wind Chill: 29°   Ceiling: Unl
Heat Index: 41°   Visibility: 10mi
Dew Point: 22°   Wind: 37mph
Humidity: 47%   Direction: 310°NW
Pressure: 29.82"   Gusts: 53mph
Location:  41.1°N, 105.14°W
Report Text: KFEW 252256Z AUTO 31032G46KT 10SM CLR 05/M06 A2982 RMK AO2 PK WND 30046/2159 SLP110 T00491057
Loading
Personal Weather Stations






























Interactive Weather Map New forecast layout! Learn more

10-Day Weather Forecast

Advertisements
Track Severe Weather on mobile